sensor_id;sensor_type;location;lat;lon;timestamp;temperature;humidity
24262;DHT22;12385;51.412;5.540;2023-04-08T00:01:58;9.50;99.90
24262;DHT22;12385;51.412;5.540;2023-04-08T00:04:24;9.50;99.90
24262;DHT22;12385;51.412;5.540;2023-04-08T00:06:49;9.50;99.90
24262;DHT22;12385;51.412;5.540;2023-04-08T00:09:18;9.50;99.90
24262;DHT22;12385;51.412;5.540;2023-04-08T00:11:43;9.50;99.90
24262;DHT22;12385;51.412;5.540;2023-04-08T00:14:09;9.50;99.90
24262;DHT22;12385;51.412;5.540;2023-04-08T00:16:36;9.50;99.90
24262;DHT22;12385;51.412;5.540;2023-04-08T00:19:01;9.50;99.90
24262;DHT22;12385;51.412;5.540;2023-04-08T00:21:27;9.50;99.90
24262;DHT22;12385;51.412;5.540;2023-04-08T00:23:53;9.50;99.90
24262;DHT22;12385;51.412;5.540;2023-04-08T00:26:19;9.50;99.90
24262;DHT22;12385;51.412;5.540;2023-04-08T00:28:45;9.50;99.90
24262;DHT22;12385;51.412;5.540;2023-04-08T00:31:11;9.50;99.90
24262;DHT22;12385;51.412;5.540;2023-04-08T00:33:37;9.50;99.90
24262;DHT22;12385;51.412;5.540;2023-04-08T00:36:03;9.50;99.90
24262;DHT22;12385;51.412;5.540;2023-04-08T00:38:28;9.50;99.90
24262;DHT22;12385;51.412;5.540;2023-04-08T00:40:56;9.50;99.90
24262;DHT22;12385;51.412;5.540;2023-04-08T00:43:22;9.60;99.90
24262;DHT22;12385;51.412;5.540;2023-04-08T00:45:48;9.50;99.90
24262;DHT22;12385;51.412;5.540;2023-04-08T00:48:20;9.50;99.90
24262;DHT22;12385;51.412;5.540;2023-04-08T00:50:45;9.50;99.90
24262;DHT22;12385;51.412;5.540;2023-04-08T00:53:16;9.60;99.90
24262;DHT22;12385;51.412;5.540;2023-04-08T00:55:42;9.50;99.90
24262;DHT22;12385;51.412;5.540;2023-04-08T00:58:07;9.60;99.90
24262;DHT22;12385;51.412;5.540;2023-04-08T01:00:35;9.60;99.90
24262;DHT22;12385;51.412;5.540;2023-04-08T01:03:16;9.60;99.90
24262;DHT22;12385;51.412;5.540;2023-04-08T01:06:07;9.60;99.90
24262;DHT22;12385;51.412;5.540;2023-04-08T01:08:37;9.60;99.90
24262;DHT22;12385;51.412;5.540;2023-04-08T01:11:05;9.60;99.90
24262;DHT22;12385;51.412;5.540;2023-04-08T01:13:41;9.60;99.90
24262;DHT22;12385;51.412;5.540;2023-04-08T01:16:12;9.50;99.90
24262;DHT22;12385;51.412;5.540;2023-04-08T01:18:39;9.60;99.90
24262;DHT22;12385;51.412;5.540;2023-04-08T01:21:06;9.60;99.90
24262;DHT22;12385;51.412;5.540;2023-04-08T01:26:21;9.60;99.90
24262;DHT22;12385;51.412;5.540;2023-04-08T01:28:49;9.60;99.90
24262;DHT22;12385;51.412;5.540;2023-04-08T01:31:17;9.60;99.90
24262;DHT22;12385;51.412;5.540;2023-04-08T01:33:50;9.60;99.90
24262;DHT22;12385;51.412;5.540;2023-04-08T01:36:16;9.60;99.90
24262;DHT22;12385;51.412;5.540;2023-04-08T01:38:43;9.60;99.90
24262;DHT22;12385;51.412;5.540;2023-04-08T01:41:11;9.50;99.90
24262;DHT22;12385;51.412;5.540;2023-04-08T01:43:41;9.60;99.90
24262;DHT22;12385;51.412;5.540;2023-04-08T01:46:09;9.60;99.90
24262;DHT22;12385;51.412;5.540;2023-04-08T01:48:36;9.60;99.90
24262;DHT22;12385;51.412;5.540;2023-04-08T01:51:03;9.60;99.90
24262;DHT22;12385;51.412;5.540;2023-04-08T01:53:30;9.60;99.90
24262;DHT22;12385;51.412;5.540;2023-04-08T01:56:08;9.50;99.90
24262;DHT22;12385;51.412;5.540;2023-04-08T01:58:41;9.60;99.90
24262;DHT22;12385;51.412;5.540;2023-04-08T02:01:13;9.60;99.90
24262;DHT22;12385;51.412;5.540;2023-04-08T02:03:43;9.50;99.90
24262;DHT22;12385;51.412;5.540;2023-04-08T02:06:09;9.60;99.90
24262;DHT22;12385;51.412;5.540;2023-04-08T02:08:34;9.50;99.90
24262;DHT22;12385;51.412;5.540;2023-04-08T02:11:15;9.50;99.90
24262;DHT22;12385;51.412;5.540;2023-04-08T02:13:41;9.50;99.90
24262;DHT22;12385;51.412;5.540;2023-04-08T02:16:17;9.50;99.90
24262;DHT22;12385;51.412;5.540;2023-04-08T02:18:53;9.50;99.90
24262;DHT22;12385;51.412;5.540;2023-04-08T02:21:26;9.50;99.90
24262;DHT22;12385;51.412;5.540;2023-04-08T02:23:54;9.50;99.90
24262;DHT22;12385;51.412;5.540;2023-04-08T02:26:23;9.50;99.90
24262;DHT22;12385;51.412;5.540;2023-04-08T02:28:49;9.50;99.90
24262;DHT22;12385;51.412;5.540;2023-04-08T02:31:18;9.50;99.90
24262;DHT22;12385;51.412;5.540;2023-04-08T02:33:45;9.50;99.90
24262;DHT22;12385;51.412;5.540;2023-04-08T02:36:11;9.50;99.90
24262;DHT22;12385;51.412;5.540;2023-04-08T02:38:38;9.50;99.90
24262;DHT22;12385;51.412;5.540;2023-04-08T02:41:04;9.50;99.90
24262;DHT22;12385;51.412;5.540;2023-04-08T02:43:30;9.50;99.90
24262;DHT22;12385;51.412;5.540;2023-04-08T02:46:00;9.50;99.90
24262;DHT22;12385;51.412;5.540;2023-04-08T02:48:28;9.50;99.90
24262;DHT22;12385;51.412;5.540;2023-04-08T02:50:53;9.50;99.90
24262;DHT22;12385;51.412;5.540;2023-04-08T02:53:20;9.40;99.90
24262;DHT22;12385;51.412;5.540;2023-04-08T02:55:46;9.40;99.90
24262;DHT22;12385;51.412;5.540;2023-04-08T02:58:11;9.30;99.90
24262;DHT22;12385;51.412;5.540;2023-04-08T03:00:38;9.30;99.90
24262;DHT22;12385;51.412;5.540;2023-04-08T03:03:04;9.30;99.90
24262;DHT22;12385;51.412;5.540;2023-04-08T03:05:31;9.20;99.90
24262;DHT22;12385;51.412;5.540;2023-04-08T03:07:57;9.30;99.90
24262;DHT22;12385;51.412;5.540;2023-04-08T03:10:22;9.30;99.90
24262;DHT22;12385;51.412;5.540;2023-04-08T03:12:48;9.20;99.90
24262;DHT22;12385;51.412;5.540;2023-04-08T03:15:16;9.30;99.90
24262;DHT22;12385;51.412;5.540;2023-04-08T03:17:41;9.20;99.90
24262;DHT22;12385;51.412;5.540;2023-04-08T03:20:08;9.20;99.90
24262;DHT22;12385;51.412;5.540;2023-04-08T03:22:34;9.20;99.90
24262;DHT22;12385;51.412;5.540;2023-04-08T03:25:01;9.20;99.90
24262;DHT22;12385;51.412;5.540;2023-04-08T03:27:27;9.20;99.90
24262;DHT22;12385;51.412;5.540;2023-04-08T03:29:52;9.20;99.90
24262;DHT22;12385;51.412;5.540;2023-04-08T03:32:18;9.20;99.90
24262;DHT22;12385;51.412;5.540;2023-04-08T03:34:44;9.20;99.90
24262;DHT22;12385;51.412;5.540;2023-04-08T03:37:13;9.20;99.90
24262;DHT22;12385;51.412;5.540;2023-04-08T03:39:38;9.10;99.90
24262;DHT22;12385;51.412;5.540;2023-04-08T03:42:04;9.10;99.90
24262;DHT22;12385;51.412;5.540;2023-04-08T03:44:30;9.10;99.90
24262;DHT22;12385;51.412;5.540;2023-04-08T03:46:55;9.10;99.90
24262;DHT22;12385;51.412;5.540;2023-04-08T03:49:21;9.10;99.90
24262;DHT22;12385;51.412;5.540;2023-04-08T03:51:46;9.10;99.90
24262;DHT22;12385;51.412;5.540;2023-04-08T03:54:12;9.10;99.90
24262;DHT22;12385;51.412;5.540;2023-04-08T03:56:38;9.10;99.90
24262;DHT22;12385;51.412;5.540;2023-04-08T03:59:04;9.10;99.90
24262;DHT22;12385;51.412;5.540;2023-04-08T04:01:30;9.10;99.90
24262;DHT22;12385;51.412;5.540;2023-04-08T04:03:57;9.10;99.90
24262;DHT22;12385;51.412;5.540;2023-04-08T04:06:22;9.10;99.90
24262;DHT22;12385;51.412;5.540;2023-04-08T04:08:48;9.10;99.90
24262;DHT22;12385;51.412;5.540;2023-04-08T04:11:15;9.10;99.90
24262;DHT22;12385;51.412;5.540;2023-04-08T04:13:40;9.20;99.90
24262;DHT22;12385;51.412;5.540;2023-04-08T04:16:07;9.10;99.90
24262;DHT22;12385;51.412;5.540;2023-04-08T04:18:32;9.10;99.90
24262;DHT22;12385;51.412;5.540;2023-04-08T04:20:58;9.10;99.90
24262;DHT22;12385;51.412;5.540;2023-04-08T04:23:24;9.10;99.90
24262;DHT22;12385;51.412;5.540;2023-04-08T04:25:50;9.10;99.90
24262;DHT22;12385;51.412;5.540;2023-04-08T04:28:16;9.10;99.90
24262;DHT22;12385;51.412;5.540;2023-04-08T04:30:41;9.10;99.90
24262;DHT22;12385;51.412;5.540;2023-04-08T04:33:08;9.10;99.90
24262;DHT22;12385;51.412;5.540;2023-04-08T04:35:34;9.10;99.90
24262;DHT22;12385;51.412;5.540;2023-04-08T04:37:59;9.10;99.90
24262;DHT22;12385;51.412;5.540;2023-04-08T04:40:25;9.20;99.90
24262;DHT22;12385;51.412;5.540;2023-04-08T04:42:51;9.20;99.90
24262;DHT22;12385;51.412;5.540;2023-04-08T04:45:17;9.20;99.90
24262;DHT22;12385;51.412;5.540;2023-04-08T04:47:43;9.20;99.90
24262;DHT22;12385;51.412;5.540;2023-04-08T04:50:09;9.20;99.90
24262;DHT22;12385;51.412;5.540;2023-04-08T04:52:35;9.20;99.90
24262;DHT22;12385;51.412;5.540;2023-04-08T04:55:07;9.20;99.90
24262;DHT22;12385;51.412;5.540;2023-04-08T04:57:33;9.20;99.90
24262;DHT22;12385;51.412;5.540;2023-04-08T04:59:59;9.20;99.90
24262;DHT22;12385;51.412;5.540;2023-04-08T05:02:25;9.20;99.90
24262;DHT22;12385;51.412;5.540;2023-04-08T05:04:51;9.20;99.90
24262;DHT22;12385;51.412;5.540;2023-04-08T05:07:18;9.20;99.90
24262;DHT22;12385;51.412;5.540;2023-04-08T05:09:44;9.20;99.90
24262;DHT22;12385;51.412;5.540;2023-04-08T05:12:10;9.20;99.90
24262;DHT22;12385;51.412;5.540;2023-04-08T05:14:36;9.30;99.90
24262;DHT22;12385;51.412;5.540;2023-04-08T05:17:02;9.30;99.90
24262;DHT22;12385;51.412;5.540;2023-04-08T05:19:30;9.30;99.90
24262;DHT22;12385;51.412;5.540;2023-04-08T05:21:55;9.30;99.90
24262;DHT22;12385;51.412;5.540;2023-04-08T05:24:21;9.30;99.90
24262;DHT22;12385;51.412;5.540;2023-04-08T05:26:47;9.30;99.90
24262;DHT22;12385;51.412;5.540;2023-04-08T05:29:16;9.30;99.90
24262;DHT22;12385;51.412;5.540;2023-04-08T05:31:43;9.30;99.90
24262;DHT22;12385;51.412;5.540;2023-04-08T05:34:09;9.30;99.90
24262;DHT22;12385;51.412;5.540;2023-04-08T05:36:35;9.20;99.90
24262;DHT22;12385;51.412;5.540;2023-04-08T05:39:01;9.20;99.90
24262;DHT22;12385;51.412;5.540;2023-04-08T05:41:27;9.20;99.90
24262;DHT22;12385;51.412;5.540;2023-04-08T05:43:52;9.10;99.90
24262;DHT22;12385;51.412;5.540;2023-04-08T05:46:18;9.10;99.90
24262;DHT22;12385;51.412;5.540;2023-04-08T05:48:43;9.00;99.90
24262;DHT22;12385;51.412;5.540;2023-04-08T05:51:13;9.00;99.90
24262;DHT22;12385;51.412;5.540;2023-04-08T05:53:38;9.00;99.90
24262;DHT22;12385;51.412;5.540;2023-04-08T05:56:04;9.10;99.90
24262;DHT22;12385;51.412;5.540;2023-04-08T05:58:30;9.10;99.90
24262;DHT22;12385;51.412;5.540;2023-04-08T06:00:55;9.10;99.90
24262;DHT22;12385;51.412;5.540;2023-04-08T06:03:21;9.10;99.90
24262;DHT22;12385;51.412;5.540;2023-04-08T06:05:47;9.10;99.90
24262;DHT22;12385;51.412;5.540;2023-04-08T06:08:13;9.20;99.90
24262;DHT22;12385;51.412;5.540;2023-04-08T06:10:38;9.20;99.90
24262;DHT22;12385;51.412;5.540;2023-04-08T06:13:04;9.30;99.90
24262;DHT22;12385;51.412;5.540;2023-04-08T06:15:30;9.40;99.90
24262;DHT22;12385;51.412;5.540;2023-04-08T06:17:56;9.40;99.90
24262;DHT22;12385;51.412;5.540;2023-04-08T06:20:22;9.40;99.90
24262;DHT22;12385;51.412;5.540;2023-04-08T06:22:48;9.50;99.90
24262;DHT22;12385;51.412;5.540;2023-04-08T06:25:14;9.50;99.90
24262;DHT22;12385;51.412;5.540;2023-04-08T06:27:40;9.50;99.90
24262;DHT22;12385;51.412;5.540;2023-04-08T06:30:06;9.60;99.90
24262;DHT22;12385;51.412;5.540;2023-04-08T06:32:32;9.60;99.90
24262;DHT22;12385;51.412;5.540;2023-04-08T06:34:57;9.70;99.90
24262;DHT22;12385;51.412;5.540;2023-04-08T06:37:23;9.70;99.90
24262;DHT22;12385;51.412;5.540;2023-04-08T06:39:49;9.70;99.90
24262;DHT22;12385;51.412;5.540;2023-04-08T06:42:14;9.80;99.90
24262;DHT22;12385;51.412;5.540;2023-04-08T06:44:40;9.80;99.90
24262;DHT22;12385;51.412;5.540;2023-04-08T06:47:06;9.80;99.90
24262;DHT22;12385;51.412;5.540;2023-04-08T06:49:32;9.80;99.90
24262;DHT22;12385;51.412;5.540;2023-04-08T06:51:58;9.80;99.90
24262;DHT22;12385;51.412;5.540;2023-04-08T06:54:23;9.80;99.90
24262;DHT22;12385;51.412;5.540;2023-04-08T06:56:50;9.80;99.90
24262;DHT22;12385;51.412;5.540;2023-04-08T06:59:16;9.80;99.90
24262;DHT22;12385;51.412;5.540;2023-04-08T07:01:42;9.80;99.90
24262;DHT22;12385;51.412;5.540;2023-04-08T07:04:08;9.80;99.90
24262;DHT22;12385;51.412;5.540;2023-04-08T07:06:33;9.80;99.90
24262;DHT22;12385;51.412;5.540;2023-04-08T07:08:59;9.90;99.90
24262;DHT22;12385;51.412;5.540;2023-04-08T07:11:24;9.90;99.90
24262;DHT22;12385;51.412;5.540;2023-04-08T07:13:50;10.00;99.90
24262;DHT22;12385;51.412;5.540;2023-04-08T07:16:17;10.00;99.90
24262;DHT22;12385;51.412;5.540;2023-04-08T07:18:42;10.00;99.90
24262;DHT22;12385;51.412;5.540;2023-04-08T07:21:08;10.00;99.90
24262;DHT22;12385;51.412;5.540;2023-04-08T07:23:33;10.00;99.90
24262;DHT22;12385;51.412;5.540;2023-04-08T07:26:03;10.10;99.90
24262;DHT22;12385;51.412;5.540;2023-04-08T07:28:31;10.10;99.90
24262;DHT22;12385;51.412;5.540;2023-04-08T07:31:14;10.20;99.90
24262;DHT22;12385;51.412;5.540;2023-04-08T07:33:41;10.20;99.90
24262;DHT22;12385;51.412;5.540;2023-04-08T07:36:08;10.20;99.90
24262;DHT22;12385;51.412;5.540;2023-04-08T07:38:36;10.30;99.90
24262;DHT22;12385;51.412;5.540;2023-04-08T07:41:01;10.40;99.90
24262;DHT22;12385;51.412;5.540;2023-04-08T07:43:27;10.50;99.90
24262;DHT22;12385;51.412;5.540;2023-04-08T07:45:53;10.50;99.90
24262;DHT22;12385;51.412;5.540;2023-04-08T07:48:18;10.50;99.90
24262;DHT22;12385;51.412;5.540;2023-04-08T07:50:44;10.60;99.90
24262;DHT22;12385;51.412;5.540;2023-04-08T07:53:11;10.60;99.90
24262;DHT22;12385;51.412;5.540;2023-04-08T07:55:36;10.70;99.90
24262;DHT22;12385;51.412;5.540;2023-04-08T07:58:03;10.70;99.90
24262;DHT22;12385;51.412;5.540;2023-04-08T08:00:29;10.80;99.90
24262;DHT22;12385;51.412;5.540;2023-04-08T08:02:55;10.80;99.90
24262;DHT22;12385;51.412;5.540;2023-04-08T08:05:21;10.80;99.90
24262;DHT22;12385;51.412;5.540;2023-04-08T08:07:47;10.90;99.90
24262;DHT22;12385;51.412;5.540;2023-04-08T08:10:12;10.90;99.90
24262;DHT22;12385;51.412;5.540;2023-04-08T08:12:38;10.90;99.90
24262;DHT22;12385;51.412;5.540;2023-04-08T08:15:04;10.90;99.90
24262;DHT22;12385;51.412;5.540;2023-04-08T08:17:30;10.90;99.90
24262;DHT22;12385;51.412;5.540;2023-04-08T08:19:58;11.00;99.90
24262;DHT22;12385;51.412;5.540;2023-04-08T08:22:24;11.00;99.90
24262;DHT22;12385;51.412;5.540;2023-04-08T08:24:57;10.90;99.90
24262;DHT22;12385;51.412;5.540;2023-04-08T08:27:24;10.90;99.90
24262;DHT22;12385;51.412;5.540;2023-04-08T08:29:49;10.90;99.90
24262;DHT22;12385;51.412;5.540;2023-04-08T08:32:15;10.90;99.90
24262;DHT22;12385;51.412;5.540;2023-04-08T08:34:41;10.90;99.90
24262;DHT22;12385;51.412;5.540;2023-04-08T08:37:07;10.90;99.90
24262;DHT22;12385;51.412;5.540;2023-04-08T08:39:32;10.90;99.90
24262;DHT22;12385;51.412;5.540;2023-04-08T08:41:58;11.00;99.90
24262;DHT22;12385;51.412;5.540;2023-04-08T08:44:23;11.00;99.90
24262;DHT22;12385;51.412;5.540;2023-04-08T08:46:50;11.10;99.90
24262;DHT22;12385;51.412;5.540;2023-04-08T08:49:15;11.10;99.90
24262;DHT22;12385;51.412;5.540;2023-04-08T08:51:44;11.10;99.90
24262;DHT22;12385;51.412;5.540;2023-04-08T08:54:10;11.20;99.90
24262;DHT22;12385;51.412;5.540;2023-04-08T08:56:36;11.20;99.90
24262;DHT22;12385;51.412;5.540;2023-04-08T08:59:01;11.20;99.90
24262;DHT22;12385;51.412;5.540;2023-04-08T09:01:37;11.20;99.90
24262;DHT22;12385;51.412;5.540;2023-04-08T09:04:16;11.30;99.90
24262;DHT22;12385;51.412;5.540;2023-04-08T09:06:45;11.30;99.90
24262;DHT22;12385;51.412;5.540;2023-04-08T09:09:13;11.30;99.90
24262;DHT22;12385;51.412;5.540;2023-04-08T09:11:44;11.30;99.90
24262;DHT22;12385;51.412;5.540;2023-04-08T09:14:44;11.30;99.90
24262;DHT22;12385;51.412;5.540;2023-04-08T09:17:10;11.30;99.90
24262;DHT22;12385;51.412;5.540;2023-04-08T09:19:35;11.30;99.90
24262;DHT22;12385;51.412;5.540;2023-04-08T09:22:10;11.30;99.90
24262;DHT22;12385;51.412;5.540;2023-04-08T09:24:36;11.40;99.90
24262;DHT22;12385;51.412;5.540;2023-04-08T09:27:03;11.40;99.90
24262;DHT22;12385;51.412;5.540;2023-04-08T09:29:29;11.40;99.90
24262;DHT22;12385;51.412;5.540;2023-04-08T09:31:59;11.50;99.90
24262;DHT22;12385;51.412;5.540;2023-04-08T09:34:27;11.50;99.90
24262;DHT22;12385;51.412;5.540;2023-04-08T09:36:54;11.50;99.90
24262;DHT22;12385;51.412;5.540;2023-04-08T09:39:20;11.60;99.90
24262;DHT22;12385;51.412;5.540;2023-04-08T09:41:50;11.60;99.90
24262;DHT22;12385;51.412;5.540;2023-04-08T09:44:16;11.60;99.90
24262;DHT22;12385;51.412;5.540;2023-04-08T09:47:02;11.50;99.90
24262;DHT22;12385;51.412;5.540;2023-04-08T09:49:33;11.60;99.90
24262;DHT22;12385;51.412;5.540;2023-04-08T09:52:20;11.60;99.90
24262;DHT22;12385;51.412;5.540;2023-04-08T09:55:04;11.70;99.90
24262;DHT22;12385;51.412;5.540;2023-04-08T09:57:54;11.80;99.90
24262;DHT22;12385;51.412;5.540;2023-04-08T10:00:46;11.90;99.90
24262;DHT22;12385;51.412;5.540;2023-04-08T10:05:52;12.00;99.90
24262;DHT22;12385;51.412;5.540;2023-04-08T10:08:18;12.00;99.90
24262;DHT22;12385;51.412;5.540;2023-04-08T10:10:46;12.10;99.90
24262;DHT22;12385;51.412;5.540;2023-04-08T10:13:12;12.20;99.90
24262;DHT22;12385;51.412;5.540;2023-04-08T10:15:38;12.20;99.90
24262;DHT22;12385;51.412;5.540;2023-04-08T10:23:03;12.30;99.90
24262;DHT22;12385;51.412;5.540;2023-04-08T10:25:34;12.30;99.90
24262;DHT22;12385;51.412;5.540;2023-04-08T10:28:01;12.40;99.90
24262;DHT22;12385;51.412;5.540;2023-04-08T10:32:54;12.60;99.90
24262;DHT22;12385;51.412;5.540;2023-04-08T10:37:56;12.60;99.90
24262;DHT22;12385;51.412;5.540;2023-04-08T10:40:23;12.60;99.90
24262;DHT22;12385;51.412;5.540;2023-04-08T10:42:55;12.70;99.90
24262;DHT22;12385;51.412;5.540;2023-04-08T10:45:21;12.90;99.90
24262;DHT22;12385;51.412;5.540;2023-04-08T10:47:47;13.00;99.90
24262;DHT22;12385;51.412;5.540;2023-04-08T10:50:14;13.10;99.90
24262;DHT22;12385;51.412;5.540;2023-04-08T10:52:53;13.10;99.90
24262;DHT22;12385;51.412;5.540;2023-04-08T10:55:25;13.10;99.90
24262;DHT22;12385;51.412;5.540;2023-04-08T10:57:52;13.10;99.90
24262;DHT22;12385;51.412;5.540;2023-04-08T11:00:18;13.00;99.90
24262;DHT22;12385;51.412;5.540;2023-04-08T11:02:45;13.00;99.90
24262;DHT22;12385;51.412;5.540;2023-04-08T11:05:11;12.80;99.90
24262;DHT22;12385;51.412;5.540;2023-04-08T11:07:40;12.70;99.90
24262;DHT22;12385;51.412;5.540;2023-04-08T11:10:07;12.70;99.90
24262;DHT22;12385;51.412;5.540;2023-04-08T11:12:34;12.70;99.90
24262;DHT22;12385;51.412;5.540;2023-04-08T11:15:00;12.70;99.90
24262;DHT22;12385;51.412;5.540;2023-04-08T11:17:27;12.70;99.90
24262;DHT22;12385;51.412;5.540;2023-04-08T11:19:53;12.80;99.90
24262;DHT22;12385;51.412;5.540;2023-04-08T11:22:19;13.00;99.90
24262;DHT22;12385;51.412;5.540;2023-04-08T11:24:45;13.00;99.90
24262;DHT22;12385;51.412;5.540;2023-04-08T11:27:11;12.90;99.90
24262;DHT22;12385;51.412;5.540;2023-04-08T11:29:37;13.00;99.90
24262;DHT22;12385;51.412;5.540;2023-04-08T11:32:03;13.00;99.90
24262;DHT22;12385;51.412;5.540;2023-04-08T11:34:28;13.10;99.90
24262;DHT22;12385;51.412;5.540;2023-04-08T11:36:55;13.20;99.90
24262;DHT22;12385;51.412;5.540;2023-04-08T11:39:23;13.30;99.90
24262;DHT22;12385;51.412;5.540;2023-04-08T11:41:49;13.30;99.90
24262;DHT22;12385;51.412;5.540;2023-04-08T11:44:14;13.20;99.90
24262;DHT22;12385;51.412;5.540;2023-04-08T11:46:40;13.20;99.90
24262;DHT22;12385;51.412;5.540;2023-04-08T11:49:17;13.30;99.90
24262;DHT22;12385;51.412;5.540;2023-04-08T11:51:59;13.50;99.90
24262;DHT22;12385;51.412;5.540;2023-04-08T11:54:26;13.70;99.90
24262;DHT22;12385;51.412;5.540;2023-04-08T11:56:52;13.80;99.90
24262;DHT22;12385;51.412;5.540;2023-04-08T11:59:18;13.90;99.90
24262;DHT22;12385;51.412;5.540;2023-04-08T12:01:44;14.00;99.90
24262;DHT22;12385;51.412;5.540;2023-04-08T12:04:10;14.00;99.90
24262;DHT22;12385;51.412;5.540;2023-04-08T12:06:35;14.10;99.90
24262;DHT22;12385;51.412;5.540;2023-04-08T12:09:01;14.10;99.90
24262;DHT22;12385;51.412;5.540;2023-04-08T12:11:26;14.20;99.90
24262;DHT22;12385;51.412;5.540;2023-04-08T12:13:52;14.30;99.90
24262;DHT22;12385;51.412;5.540;2023-04-08T12:16:18;14.40;99.90
24262;DHT22;12385;51.412;5.540;2023-04-08T12:18:44;14.40;99.90
24262;DHT22;12385;51.412;5.540;2023-04-08T12:21:11;14.50;99.90
24262;DHT22;12385;51.412;5.540;2023-04-08T12:23:36;14.70;99.90
24262;DHT22;12385;51.412;5.540;2023-04-08T12:26:04;14.80;99.90
24262;DHT22;12385;51.412;5.540;2023-04-08T12:28:30;14.90;99.90
24262;DHT22;12385;51.412;5.540;2023-04-08T12:30:55;15.00;99.90
24262;DHT22;12385;51.412;5.540;2023-04-08T12:33:21;15.20;99.90
24262;DHT22;12385;51.412;5.540;2023-04-08T12:35:47;15.20;99.90
24262;DHT22;12385;51.412;5.540;2023-04-08T12:38:12;15.40;99.90
24262;DHT22;12385;51.412;5.540;2023-04-08T12:40:40;15.50;99.90
24262;DHT22;12385;51.412;5.540;2023-04-08T12:43:06;15.60;99.90
24262;DHT22;12385;51.412;5.540;2023-04-08T12:45:31;15.80;99.90
24262;DHT22;12385;51.412;5.540;2023-04-08T12:47:58;15.90;99.90
24262;DHT22;12385;51.412;5.540;2023-04-08T12:50:24;16.10;99.90
24262;DHT22;12385;51.412;5.540;2023-04-08T12:52:49;16.20;99.90
24262;DHT22;12385;51.412;5.540;2023-04-08T12:55:15;16.50;99.90
24262;DHT22;12385;51.412;5.540;2023-04-08T12:57:40;16.60;99.90
24262;DHT22;12385;51.412;5.540;2023-04-08T13:00:06;16.80;99.90
24262;DHT22;12385;51.412;5.540;2023-04-08T13:02:32;16.80;99.90
24262;DHT22;12385;51.412;5.540;2023-04-08T13:04:58;16.90;99.90
24262;DHT22;12385;51.412;5.540;2023-04-08T13:07:23;17.00;99.90
24262;DHT22;12385;51.412;5.540;2023-04-08T13:09:52;17.00;99.90
24262;DHT22;12385;51.412;5.540;2023-04-08T13:12:17;17.10;99.90
24262;DHT22;12385;51.412;5.540;2023-04-08T13:14:43;17.20;99.90
24262;DHT22;12385;51.412;5.540;2023-04-08T13:17:10;17.30;99.90
24262;DHT22;12385;51.412;5.540;2023-04-08T13:19:35;17.60;99.90
24262;DHT22;12385;51.412;5.540;2023-04-08T13:22:01;17.90;99.90
24262;DHT22;12385;51.412;5.540;2023-04-08T13:24:26;18.30;99.90
24262;DHT22;12385;51.412;5.540;2023-04-08T13:26:52;18.70;99.90
24262;DHT22;12385;51.412;5.540;2023-04-08T13:29:18;19.20;99.80
24262;DHT22;12385;51.412;5.540;2023-04-08T13:31:43;19.60;97.80
24262;DHT22;12385;51.412;5.540;2023-04-08T13:34:09;20.00;97.30
24262;DHT22;12385;51.412;5.540;2023-04-08T13:36:36;20.00;94.50
24262;DHT22;12385;51.412;5.540;2023-04-08T13:39:01;19.80;93.90
24262;DHT22;12385;51.412;5.540;2023-04-08T13:41:27;19.40;93.90
24262;DHT22;12385;51.412;5.540;2023-04-08T13:43:53;19.00;93.80
24262;DHT22;12385;51.412;5.540;2023-04-08T13:46:19;18.70;94.20
24262;DHT22;12385;51.412;5.540;2023-04-08T13:48:45;18.40;94.50
24262;DHT22;12385;51.412;5.540;2023-04-08T13:51:11;18.10;94.80
24262;DHT22;12385;51.412;5.540;2023-04-08T13:53:37;17.90;95.40
24262;DHT22;12385;51.412;5.540;2023-04-08T13:56:03;17.60;95.20
24262;DHT22;12385;51.412;5.540;2023-04-08T13:58:29;17.40;95.50
24262;DHT22;12385;51.412;5.540;2023-04-08T14:00:55;17.30;95.80
24262;DHT22;12385;51.412;5.540;2023-04-08T14:03:21;17.10;96.30
24262;DHT22;12385;51.412;5.540;2023-04-08T14:05:47;16.80;96.80
24262;DHT22;12385;51.412;5.540;2023-04-08T14:08:12;16.70;97.00
24262;DHT22;12385;51.412;5.540;2023-04-08T14:10:38;16.50;97.20
24262;DHT22;12385;51.412;5.540;2023-04-08T14:13:04;16.30;97.60
24262;DHT22;12385;51.412;5.540;2023-04-08T14:15:29;16.20;98.10
24262;DHT22;12385;51.412;5.540;2023-04-08T14:17:55;16.00;98.30
24262;DHT22;12385;51.412;5.540;2023-04-08T14:20:22;16.00;98.40
24262;DHT22;12385;51.412;5.540;2023-04-08T14:22:48;16.00;98.50
24262;DHT22;12385;51.412;5.540;2023-04-08T14:25:13;16.00;98.90
24262;DHT22;12385;51.412;5.540;2023-04-08T14:27:39;15.90;99.40
24262;DHT22;12385;51.412;5.540;2023-04-08T14:30:05;15.90;99.90
24262;DHT22;12385;51.412;5.540;2023-04-08T14:32:31;15.90;99.90
24262;DHT22;12385;51.412;5.540;2023-04-08T14:34:59;15.80;99.90
24262;DHT22;12385;51.412;5.540;2023-04-08T14:37:25;15.80;99.90
24262;DHT22;12385;51.412;5.540;2023-04-08T14:39:50;15.80;99.90
24262;DHT22;12385;51.412;5.540;2023-04-08T14:42:16;15.80;99.90
24262;DHT22;12385;51.412;5.540;2023-04-08T14:44:42;15.80;99.90
24262;DHT22;12385;51.412;5.540;2023-04-08T14:47:08;15.80;99.90
24262;DHT22;12385;51.412;5.540;2023-04-08T14:49:34;15.90;99.30
24262;DHT22;12385;51.412;5.540;2023-04-08T14:52:00;16.00;98.00
24262;DHT22;12385;51.412;5.540;2023-04-08T14:54:26;16.10;97.60
24262;DHT22;12385;51.412;5.540;2023-04-08T14:56:52;16.30;96.80
24262;DHT22;12385;51.412;5.540;2023-04-08T14:59:18;16.40;96.40
24262;DHT22;12385;51.412;5.540;2023-04-08T15:01:44;16.60;95.60
24262;DHT22;12385;51.412;5.540;2023-04-08T15:04:10;17.30;95.00
24262;DHT22;12385;51.412;5.540;2023-04-08T15:06:36;18.20;93.50
24262;DHT22;12385;51.412;5.540;2023-04-08T15:09:03;19.20;90.30
24262;DHT22;12385;51.412;5.540;2023-04-08T15:11:28;20.00;86.70
24262;DHT22;12385;51.412;5.540;2023-04-08T15:13:54;20.80;80.80
24262;DHT22;12385;51.412;5.540;2023-04-08T15:16:20;21.30;75.00
24262;DHT22;12385;51.412;5.540;2023-04-08T15:18:47;21.90;72.60
24262;DHT22;12385;51.412;5.540;2023-04-08T15:21:13;22.30;68.60
24262;DHT22;12385;51.412;5.540;2023-04-08T15:23:38;22.40;65.60
24262;DHT22;12385;51.412;5.540;2023-04-08T15:26:07;22.50;61.70
24262;DHT22;12385;51.412;5.540;2023-04-08T15:28:33;22.60;60.60
24262;DHT22;12385;51.412;5.540;2023-04-08T15:30:58;22.90;60.30
24262;DHT22;12385;51.412;5.540;2023-04-08T15:33:24;23.10;58.70
24262;DHT22;12385;51.412;5.540;2023-04-08T15:35:50;23.00;58.50
24262;DHT22;12385;51.412;5.540;2023-04-08T15:38:16;22.70;57.80
24262;DHT22;12385;51.412;5.540;2023-04-08T15:40:42;22.20;57.60
24262;DHT22;12385;51.412;5.540;2023-04-08T15:43:08;21.70;59.20
24262;DHT22;12385;51.412;5.540;2023-04-08T15:45:35;21.60;59.00
24262;DHT22;12385;51.412;5.540;2023-04-08T15:48:03;21.30;59.60
24262;DHT22;12385;51.412;5.540;2023-04-08T15:50:31;21.30;59.30
24262;DHT22;12385;51.412;5.540;2023-04-08T15:52:56;21.50;59.00